createdAt,value
2023-09-22T00:01:37.028Z,9.75
2023-09-22T00:04:06.511Z,11.27
2023-09-22T00:06:36.413Z,10.95
2023-09-22T00:09:07.253Z,10.65
2023-09-22T00:11:38.018Z,10.23
2023-09-22T00:14:08.396Z,9.98
2023-09-22T00:16:39.057Z,10.57
2023-09-22T00:19:08.625Z,11.10
2023-09-22T00:21:37.981Z,10.60
2023-09-22T00:24:10.354Z,10.73
2023-09-22T00:26:39.455Z,10.82
2023-09-22T00:29:08.522Z,10.80
2023-09-22T00:31:39.343Z,10.32
2023-09-22T00:34:08.649Z,10.80
2023-09-22T00:36:37.796Z,10.90
2023-09-22T00:39:07.116Z,10.80
2023-09-22T00:41:36.286Z,10.65
2023-09-22T00:44:05.626Z,11.55
2023-09-22T00:46:35.874Z,11.00
2023-09-22T00:49:07.092Z,10.90
2023-09-22T00:51:37.237Z,11.40
2023-09-22T00:54:06.596Z,11.73
2023-09-22T00:56:35.718Z,11.00
2023-09-22T00:59:05.477Z,10.65
2023-09-22T01:01:34.578Z,10.32
2023-09-22T01:04:03.932Z,11.10
2023-09-22T01:06:34.914Z,11.48
2023-09-22T01:09:08.200Z,11.05
2023-09-22T01:11:37.496Z,11.05
2023-09-22T01:14:07.202Z,11.38
2023-09-22T01:16:36.477Z,10.63
2023-09-22T01:19:22.104Z,10.80
2023-09-22T01:21:52.987Z,10.02
2023-09-22T01:24:22.119Z,11.52
2023-09-22T01:26:51.333Z,10.90
2023-09-22T01:29:21.336Z,11.32
2023-09-22T01:31:50.522Z,11.70
2023-09-22T01:34:19.681Z,12.07
2023-09-22T01:36:51.894Z,11.65
2023-09-22T01:39:20.993Z,11.05
2023-09-22T01:41:50.129Z,11.18
2023-09-22T01:44:19.151Z,11.30
2023-09-22T01:46:48.361Z,11.15
2023-09-22T01:49:17.433Z,12.02
2023-09-22T01:51:46.776Z,11.93
2023-09-22T01:54:17.759Z,11.35
2023-09-22T01:56:49.760Z,10.77
2023-09-22T01:59:19.025Z,11.55
2023-09-22T02:01:48.202Z,10.55
2023-09-22T02:04:17.405Z,10.90
2023-09-22T02:06:46.485Z,11.05
2023-09-22T02:09:17.443Z,10.88
2023-09-22T02:11:46.490Z,11.40
2023-09-22T02:14:18.512Z,11.00
2023-09-22T02:16:47.754Z,11.75
2023-09-22T02:19:17.093Z,11.30
2023-09-22T02:21:47.961Z,10.85
2023-09-22T02:24:18.785Z,11.18
2023-09-22T02:26:48.058Z,10.40
2023-09-22T02:29:17.359Z,11.02
2023-09-22T02:31:47.046Z,11.45
2023-09-22T02:34:22.608Z,10.65
2023-09-22T02:36:52.794Z,10.50
2023-09-22T02:39:24.008Z,11.25
2023-09-22T02:41:53.122Z,11.13
2023-09-22T02:44:22.090Z,10.63
2023-09-22T02:46:51.252Z,10.43
2023-09-22T02:49:20.479Z,11.23
2023-09-22T02:51:49.964Z,11.18
2023-09-22T02:54:19.139Z,10.85
2023-09-22T02:56:49.887Z,10.88
2023-09-22T02:59:19.977Z,10.45
2023-09-22T03:01:49.134Z,10.93
2023-09-22T03:04:18.506Z,11.27
2023-09-22T03:06:47.710Z,10.77
2023-09-22T03:09:17.271Z,10.30
2023-09-22T03:11:46.282Z,11.02
2023-09-22T03:14:17.034Z,11.77
2023-09-22T03:16:45.999Z,11.00
2023-09-22T03:19:15.095Z,10.30
2023-09-22T03:21:44.148Z,10.60
2023-09-22T03:24:13.805Z,10.82
2023-09-22T03:26:42.769Z,11.32
2023-09-22T03:29:15.840Z,10.27
2023-09-22T03:31:45.024Z,10.95
2023-09-22T03:34:13.394Z,10.50
2023-09-22T03:36:43.953Z,11.07
2023-09-22T03:39:14.780Z,10.25
2023-09-22T03:41:44.497Z,10.73
2023-09-22T03:44:16.520Z,10.00
2023-09-22T03:46:48.675Z,10.88
2023-09-22T03:49:17.712Z,10.43
2023-09-22T03:51:47.282Z,9.88
2023-09-22T03:54:16.398Z,10.40
2023-09-22T03:56:46.965Z,9.73
2023-09-22T03:59:17.728Z,9.95
2023-09-22T04:01:47.286Z,9.57
2023-09-22T04:04:17.229Z,10.23
2023-09-22T04:06:47.114Z,10.55
2023-09-22T04:09:16.157Z,9.52
2023-09-22T04:11:45.168Z,10.02
2023-09-22T04:14:14.158Z,10.00
2023-09-22T04:16:44.870Z,10.10
2023-09-22T04:19:14.289Z,9.70
2023-09-22T04:21:50.234Z,9.75
2023-09-22T04:26:51.886Z,10.10
2023-09-22T04:29:22.630Z,10.35
2023-09-22T04:31:54.025Z,10.52
2023-09-22T04:34:23.014Z,10.65
2023-09-22T04:36:52.131Z,10.02
2023-09-22T04:39:23.526Z,10.23
2023-09-22T04:41:52.657Z,10.70
2023-09-22T04:44:21.692Z,11.02
2023-09-22T04:46:50.782Z,11.30
2023-09-22T04:49:21.395Z,10.20
2023-09-22T04:51:50.415Z,10.98
2023-09-22T04:54:21.896Z,10.57
2023-09-22T04:56:51.072Z,10.55
2023-09-22T04:59:20.904Z,10.63
2023-09-22T05:01:50.173Z,10.68
2023-09-22T05:04:21.088Z,9.98
2023-09-22T05:06:50.301Z,10.55
2023-09-22T05:09:19.333Z,11.13
2023-09-22T05:11:48.299Z,10.90
2023-09-22T05:14:17.492Z,10.80
2023-09-22T05:16:46.506Z,10.80
2023-09-22T05:19:15.558Z,11.45
2023-09-22T05:21:46.511Z,11.27
2023-09-22T05:24:15.637Z,11.13
2023-09-22T05:26:44.705Z,11.07
2023-09-22T05:29:14.260Z,10.77
2023-09-22T05:31:43.501Z,11.48
2023-09-22T05:34:12.880Z,10.70
2023-09-22T05:36:42.184Z,11.10
2023-09-22T05:39:13.037Z,11.50
2023-09-22T05:41:43.882Z,11.63
2023-09-22T05:44:12.810Z,11.90
2023-09-22T05:46:41.976Z,11.60
2023-09-22T05:49:16.223Z,11.60
2023-09-22T05:51:45.431Z,11.27
2023-09-22T05:54:16.081Z,11.15
2023-09-22T05:56:45.170Z,11.73
2023-09-22T05:59:14.699Z,11.80
2023-09-22T06:01:43.794Z,12.00
2023-09-22T06:04:13.934Z,12.52
2023-09-22T06:06:44.501Z,11.85
2023-09-22T06:09:15.361Z,12.98
2023-09-22T06:11:44.427Z,12.40
2023-09-22T06:14:14.342Z,12.23
2023-09-22T06:16:43.702Z,11.43
2023-09-22T06:19:12.904Z,11.90
2023-09-22T06:21:41.997Z,11.57
2023-09-22T06:24:11.303Z,12.25
2023-09-22T06:26:42.658Z,12.88
2023-09-22T06:29:11.864Z,12.10
2023-09-22T06:31:41.011Z,13.30
2023-09-22T06:34:10.535Z,13.05
2023-09-22T06:36:39.646Z,12.88
2023-09-22T06:39:10.075Z,12.80
2023-09-22T06:41:47.697Z,12.88
2023-09-22T06:44:18.155Z,12.82
2023-09-22T06:46:47.429Z,12.82
2023-09-22T06:49:18.092Z,13.15
2023-09-22T06:51:47.275Z,13.15
2023-09-22T06:54:16.400Z,12.30
2023-09-22T06:56:50.292Z,13.02
2023-09-22T06:59:20.348Z,12.18
2023-09-22T07:01:49.565Z,12.95
2023-09-22T07:04:19.234Z,12.88
2023-09-22T07:06:48.270Z,13.07
2023-09-22T07:09:17.426Z,13.52
2023-09-22T07:11:48.095Z,12.82
2023-09-22T07:14:17.168Z,12.38
2023-09-22T07:16:46.826Z,13.38
2023-09-22T07:19:15.990Z,12.05
2023-09-22T07:21:45.129Z,12.85
2023-09-22T07:24:14.346Z,12.63
2023-09-22T07:26:43.463Z,13.63
2023-09-22T07:29:14.239Z,12.70
2023-09-22T07:31:45.500Z,13.18
2023-09-22T07:34:14.522Z,13.35
2023-09-22T07:36:44.039Z,12.52
2023-09-22T07:39:13.412Z,12.52
2023-09-22T07:41:42.746Z,13.60
2023-09-22T07:44:13.392Z,13.10
2023-09-22T07:46:44.855Z,13.93
2023-09-22T07:49:14.986Z,12.75
2023-09-22T07:51:47.205Z,13.15
2023-09-22T07:54:16.436Z,12.82
2023-09-22T07:56:48.184Z,13.55
2023-09-22T07:59:19.123Z,13.35
2023-09-22T08:01:48.355Z,13.75
2023-09-22T08:04:17.409Z,12.77
2023-09-22T08:06:49.232Z,13.20
2023-09-22T08:09:18.584Z,13.32
2023-09-22T08:11:47.642Z,13.25
2023-09-22T08:14:19.289Z,12.65
2023-09-22T08:16:49.199Z,13.75
2023-09-22T08:19:18.459Z,12.55
2023-09-22T08:21:48.818Z,12.57
2023-09-22T08:24:18.616Z,13.02
2023-09-22T08:26:49.142Z,14.02
2023-09-22T08:29:20.256Z,12.88
2023-09-22T08:31:49.246Z,13.35
2023-09-22T08:34:18.393Z,13.30
2023-09-22T08:36:47.587Z,13.80
2023-09-22T08:39:18.759Z,13.23
2023-09-22T08:41:48.096Z,13.20
2023-09-22T08:44:19.616Z,13.50
2023-09-22T08:46:50.706Z,13.25
2023-09-22T08:49:20.126Z,13.45
2023-09-22T08:51:49.659Z,12.88
2023-09-22T08:54:19.134Z,13.85
2023-09-22T08:56:48.324Z,13.88
2023-09-22T08:59:19.019Z,13.18
2023-09-22T09:01:48.158Z,13.27
2023-09-22T09:04:35.820Z,13.70
2023-09-22T09:07:06.660Z,14.20
2023-09-22T09:09:46.513Z,14.27
2023-09-22T09:12:15.960Z,14.13
2023-09-22T09:14:49.014Z,13.25
2023-09-22T09:17:22.406Z,13.25
2023-09-22T09:19:56.980Z,13.75
2023-09-22T09:22:34.665Z,14.13
2023-09-22T09:25:04.930Z,13.20
2023-09-22T09:27:34.060Z,13.77
2023-09-22T09:30:21.101Z,14.50
2023-09-22T09:32:50.527Z,13.77
2023-09-22T09:35:48.186Z,14.23
2023-09-22T09:38:20.427Z,13.80
2023-09-22T09:40:49.766Z,13.60
2023-09-22T09:43:18.932Z,14.07
2023-09-22T09:45:51.340Z,14.68
2023-09-22T09:48:22.036Z,14.77
2023-09-22T09:50:54.219Z,14.05
2023-09-22T09:53:33.965Z,13.85
2023-09-22T09:56:05.023Z,14.40
2023-09-22T09:58:41.188Z,13.43
2023-09-22T10:03:45.051Z,13.90
2023-09-22T10:06:17.279Z,13.93
2023-09-22T10:08:46.639Z,14.13
2023-09-22T10:11:16.505Z,15.35
2023-09-22T10:13:45.936Z,14.40
2023-09-22T10:16:31.469Z,13.73
2023-09-22T10:19:04.825Z,13.90
2023-09-22T10:21:59.532Z,13.30
2023-09-22T10:24:31.819Z,13.90
2023-09-22T10:27:11.612Z,14.60
2023-09-22T10:29:47.602Z,13.30
2023-09-22T10:32:31.106Z,13.23
2023-09-22T10:35:05.977Z,13.55
2023-09-22T10:37:39.374Z,13.55
2023-09-22T10:40:10.965Z,13.40
2023-09-22T10:42:43.992Z,13.50
2023-09-22T10:45:14.704Z,14.07
2023-09-22T10:47:47.061Z,13.50
2023-09-22T10:50:23.752Z,14.02
2023-09-22T10:52:57.567Z,13.98
2023-09-22T10:55:32.793Z,13.25
2023-09-22T10:58:02.158Z,14.83
2023-09-22T11:00:31.185Z,14.07
2023-09-22T11:03:08.779Z,13.70
2023-09-22T11:05:37.952Z,13.98
2023-09-22T11:08:17.824Z,14.52
2023-09-22T11:10:50.318Z,13.98
2023-09-22T11:13:20.413Z,14.23
2023-09-22T11:15:51.455Z,14.35
2023-09-22T11:18:27.326Z,13.73
2023-09-22T11:21:00.136Z,13.93
2023-09-22T11:23:29.773Z,14.88
2023-09-22T11:26:00.126Z,13.80
2023-09-22T11:28:30.620Z,14.38
2023-09-22T11:31:08.876Z,13.75
2023-09-22T11:33:39.668Z,13.07
2023-09-22T11:36:09.354Z,13.57
2023-09-22T11:38:42.341Z,13.45
2023-09-22T11:41:18.225Z,14.55
2023-09-22T11:43:48.967Z,13.25
2023-09-22T11:46:20.206Z,13.63
2023-09-22T11:49:01.749Z,13.88
2023-09-22T11:51:44.236Z,14.32
2023-09-22T11:54:18.490Z,13.98
2023-09-22T11:56:48.862Z,13.70
2023-09-22T11:59:20.381Z,13.82
2023-09-22T12:01:50.544Z,13.88
2023-09-22T12:04:21.904Z,13.88
2023-09-22T12:06:51.800Z,13.65
2023-09-22T12:09:21.327Z,13.95
2023-09-22T12:11:53.391Z,14.02
2023-09-22T12:14:22.606Z,13.75
2023-09-22T12:16:53.671Z,14.25
2023-09-22T12:19:27.215Z,13.38
2023-09-22T12:21:56.320Z,14.52
2023-09-22T12:24:25.593Z,13.80
2023-09-22T12:26:54.668Z,13.88
2023-09-22T12:29:23.767Z,14.00
2023-09-22T12:31:52.838Z,13.77
2023-09-22T12:34:23.687Z,14.27
2023-09-22T12:36:52.672Z,13.25
2023-09-22T12:39:21.623Z,13.70
2023-09-22T12:41:50.770Z,13.85
2023-09-22T12:44:19.796Z,14.98
2023-09-22T12:46:48.998Z,13.95
2023-09-22T12:49:19.075Z,14.25
2023-09-22T12:51:49.758Z,14.07
2023-09-22T12:54:19.676Z,13.90
2023-09-22T12:56:50.179Z,13.45
2023-09-22T12:59:28.049Z,13.10
2023-09-22T13:01:57.184Z,13.98
2023-09-22T13:04:30.437Z,14.10
2023-09-22T13:07:01.275Z,13.95
2023-09-22T13:09:33.147Z,13.77
2023-09-22T13:12:04.565Z,13.45
2023-09-22T13:14:33.509Z,13.43
2023-09-22T13:17:02.555Z,13.52
2023-09-22T13:19:34.383Z,13.70
2023-09-22T13:22:05.134Z,13.40
2023-09-22T13:24:34.143Z,13.65
2023-09-22T13:27:03.182Z,14.23
2023-09-22T13:29:32.620Z,13.75
2023-09-22T13:32:01.843Z,13.55
2023-09-22T13:34:35.844Z,14.18
2023-09-22T13:37:07.331Z,13.73
2023-09-22T13:39:36.458Z,13.48
2023-09-22T13:42:05.582Z,13.45
2023-09-22T13:44:34.678Z,13.77
2023-09-22T13:47:03.988Z,13.77
2023-09-22T13:49:33.153Z,14.70
2023-09-22T13:52:03.449Z,13.68
2023-09-22T13:54:34.030Z,14.00
2023-09-22T13:57:03.106Z,14.05
2023-09-22T13:59:32.103Z,13.77
2023-09-22T14:02:01.143Z,13.20
2023-09-22T14:04:30.184Z,13.38
2023-09-22T14:06:59.216Z,14.25
2023-09-22T14:09:28.537Z,14.95
2023-09-22T14:11:59.251Z,14.70
2023-09-22T14:14:28.907Z,14.45
2023-09-22T14:16:58.136Z,13.60
2023-09-22T14:19:27.377Z,13.10
2023-09-22T14:21:58.376Z,14.85
2023-09-22T14:24:28.670Z,14.68
2023-09-22T14:26:59.373Z,14.55
2023-09-22T14:29:28.378Z,13.93
2023-09-22T14:31:57.728Z,13.90
2023-09-22T14:34:26.879Z,15.52
2023-09-22T14:36:55.917Z,13.95
2023-09-22T14:39:24.964Z,15.00
2023-09-22T14:41:54.565Z,14.20
2023-09-22T14:44:25.430Z,14.18
2023-09-22T14:46:54.708Z,14.73
2023-09-22T14:49:23.903Z,14.68
2023-09-22T14:51:52.988Z,14.02
2023-09-22T14:54:23.256Z,14.88
2023-09-22T14:56:52.354Z,15.40
2023-09-22T14:59:21.594Z,14.25
2023-09-22T15:01:52.311Z,14.50
2023-09-22T15:04:21.516Z,14.18
2023-09-22T15:06:50.614Z,14.63
2023-09-22T15:09:19.674Z,14.77
2023-09-22T15:11:48.937Z,14.73
2023-09-22T15:14:18.886Z,14.60
2023-09-22T15:16:48.407Z,14.75
2023-09-22T15:19:19.269Z,14.00
2023-09-22T15:21:48.327Z,14.40
2023-09-22T15:24:17.648Z,14.50
2023-09-22T15:26:46.848Z,14.95
2023-09-22T15:29:17.818Z,14.75
2023-09-22T15:31:47.106Z,13.75
2023-09-22T15:34:20.810Z,13.70
2023-09-22T15:36:50.556Z,14.63
2023-09-22T15:39:19.668Z,13.82
2023-09-22T15:41:48.736Z,13.88
2023-09-22T15:44:18.674Z,13.13
2023-09-22T15:46:47.853Z,13.68
2023-09-22T15:49:16.917Z,13.48
2023-09-22T15:51:47.616Z,14.40
2023-09-22T15:54:17.307Z,13.25
2023-09-22T15:56:46.305Z,12.93
2023-09-22T15:59:15.400Z,13.13
2023-09-22T16:01:48.209Z,13.48
2023-09-22T16:04:20.057Z,13.15
2023-09-22T16:06:51.136Z,13.02
2023-09-22T16:09:20.360Z,12.95
2023-09-22T16:11:49.696Z,13.20
2023-09-22T16:14:18.658Z,13.88
2023-09-22T16:16:47.911Z,12.65
2023-09-22T16:19:17.299Z,13.38
2023-09-22T16:21:46.279Z,12.20
2023-09-22T16:24:16.932Z,12.13
2023-09-22T16:26:46.040Z,11.95
2023-09-22T16:29:15.067Z,12.18
2023-09-22T16:31:44.135Z,12.70
2023-09-22T16:34:16.104Z,11.32
2023-09-22T16:36:45.234Z,11.23
2023-09-22T16:39:15.934Z,11.40
2023-09-22T16:41:47.638Z,11.32
2023-09-22T16:44:16.716Z,10.48
2023-09-22T16:46:45.829Z,11.57
2023-09-22T16:49:15.082Z,12.07
2023-09-22T16:51:44.154Z,11.07
2023-09-22T16:54:13.148Z,10.90
2023-09-22T16:56:45.211Z,10.90
2023-09-22T16:59:14.185Z,11.55
2023-09-22T17:01:43.260Z,11.25
2023-09-22T17:04:12.625Z,10.57
2023-09-22T17:06:41.926Z,12.73
2023-09-22T17:09:11.896Z,11.57
2023-09-22T17:11:42.803Z,11.43
2023-09-22T17:14:11.822Z,13.23
2023-09-22T17:16:40.919Z,11.88
2023-09-22T17:19:11.687Z,11.52
2023-09-22T17:21:40.684Z,11.55
2023-09-22T17:24:10.028Z,11.30
2023-09-22T17:26:39.045Z,11.80
2023-09-22T17:29:09.768Z,11.63
2023-09-22T17:31:38.798Z,10.70
2023-09-22T17:34:08.709Z,10.95
2023-09-22T17:36:37.970Z,11.07
2023-09-22T17:39:07.785Z,10.88
2023-09-22T17:41:36.828Z,10.23
2023-09-22T17:44:06.219Z,9.25
2023-09-22T17:46:38.096Z,10.55
2023-09-22T17:49:07.183Z,9.70
2023-09-22T17:51:36.147Z,10.38
2023-09-22T17:54:05.295Z,10.20
2023-09-22T17:56:34.976Z,11.15
2023-09-22T17:59:03.990Z,10.38
2023-09-22T18:01:33.129Z,10.20
2023-09-22T18:04:04.007Z,10.57
2023-09-22T18:06:34.230Z,9.80
2023-09-22T18:09:03.731Z,9.82
2023-09-22T18:11:32.696Z,10.70
2023-09-22T18:14:02.461Z,10.45
2023-09-22T18:16:31.546Z,10.65
2023-09-22T18:19:00.558Z,11.43
2023-09-22T18:21:32.986Z,10.70
2023-09-22T18:24:03.546Z,10.68
2023-09-22T18:26:35.523Z,10.95
2023-09-22T18:29:06.102Z,10.27
2023-09-22T18:31:35.506Z,10.20
2023-09-22T18:34:09.343Z,11.38
2023-09-22T18:36:40.082Z,10.00
2023-09-22T18:39:11.608Z,9.55
2023-09-22T18:41:41.655Z,10.18
2023-09-22T18:44:10.709Z,10.68
2023-09-22T18:46:39.871Z,11.57
2023-09-22T18:49:10.420Z,10.52
2023-09-22T18:51:41.008Z,10.43
2023-09-22T18:54:10.389Z,11.20
2023-09-22T18:56:39.562Z,11.10
2023-09-22T18:59:10.348Z,10.90
2023-09-22T19:01:39.494Z,10.80
2023-09-22T19:04:08.658Z,10.80
2023-09-22T19:06:37.624Z,11.77
2023-09-22T19:09:08.247Z,10.98
2023-09-22T19:11:37.225Z,11.60
2023-09-22T19:14:06.298Z,10.40
2023-09-22T19:16:36.455Z,11.60
2023-09-22T19:19:05.699Z,10.48
2023-09-22T19:21:38.079Z,9.50
2023-09-22T19:24:10.613Z,10.55
2023-09-22T19:26:40.260Z,10.43
2023-09-22T19:29:09.271Z,10.57
2023-09-22T19:31:38.583Z,11.75
2023-09-22T19:34:07.997Z,11.60
2023-09-22T19:36:37.058Z,10.88
2023-09-22T19:39:08.007Z,11.82
2023-09-22T19:41:36.963Z,11.55
2023-09-22T19:44:06.206Z,11.75
2023-09-22T19:46:36.391Z,11.55
2023-09-22T19:49:07.500Z,11.55
2023-09-22T19:51:36.507Z,11.52
2023-09-22T19:54:06.493Z,11.05
2023-09-22T19:56:37.137Z,11.63
2023-09-22T19:59:06.663Z,11.32
2023-09-22T20:01:36.303Z,11.63
2023-09-22T20:04:06.528Z,11.77
2023-09-22T20:06:35.594Z,11.63
2023-09-22T20:09:10.891Z,11.73
2023-09-22T20:11:41.489Z,12.35
2023-09-22T20:14:10.521Z,11.30
2023-09-22T20:16:39.750Z,10.98
2023-09-22T20:19:08.863Z,12.07
2023-09-22T20:21:38.652Z,11.52
2023-09-22T20:24:08.565Z,11.48
2023-09-22T20:26:37.484Z,11.40
2023-09-22T20:29:08.159Z,12.07
2023-09-22T20:31:40.326Z,11.73
2023-09-22T20:34:10.998Z,10.77
2023-09-22T20:36:40.749Z,12.25
2023-09-22T20:39:10.007Z,10.88
2023-09-22T20:41:39.530Z,10.85
2023-09-22T20:44:10.631Z,9.85
2023-09-22T20:46:40.336Z,11.32
2023-09-22T20:49:12.715Z,10.88
2023-09-22T20:51:42.538Z,11.82
2023-09-22T20:54:13.704Z,11.48
2023-09-22T20:56:42.763Z,10.60
2023-09-22T20:59:14.585Z,12.38
2023-09-22T21:01:43.722Z,12.30
2023-09-22T21:04:15.094Z,14.40
2023-09-22T21:06:45.790Z,13.40
2023-09-22T21:09:21.066Z,12.93
2023-09-22T21:11:50.379Z,13.52
2023-09-22T21:14:21.185Z,12.18
2023-09-22T21:16:50.382Z,12.73
2023-09-22T21:19:19.485Z,13.43
2023-09-22T21:21:48.520Z,12.68
2023-09-22T21:24:17.818Z,13.40
2023-09-22T21:26:46.856Z,13.32
2023-09-22T21:29:21.217Z,14.13
2023-09-22T21:31:52.178Z,13.48
2023-09-22T21:34:22.593Z,13.25
2023-09-22T21:36:51.551Z,14.40
2023-09-22T21:39:20.523Z,13.23
2023-09-22T21:41:49.930Z,13.23
2023-09-22T21:44:22.259Z,13.43
2023-09-22T21:46:53.064Z,12.90
2023-09-22T21:49:22.084Z,13.65
2023-09-22T21:51:51.054Z,13.75
2023-09-22T21:54:20.121Z,13.90
2023-09-22T21:56:49.171Z,15.30
2023-09-22T21:59:18.213Z,15.27
2023-09-22T22:01:47.419Z,16.60
2023-09-22T22:04:18.035Z,16.00
2023-09-22T22:06:50.049Z,14.88
2023-09-22T22:09:20.587Z,15.65
2023-09-22T22:11:51.384Z,15.00
2023-09-22T22:14:20.399Z,15.38
2023-09-22T22:16:51.266Z,16.00
2023-09-22T22:19:22.334Z,16.33
2023-09-22T22:21:52.863Z,16.85
2023-09-22T22:24:23.620Z,16.85
2023-09-22T22:26:57.342Z,15.13
2023-09-22T22:29:26.324Z,15.80
2023-09-22T22:31:55.375Z,14.82
2023-09-22T22:34:26.106Z,15.82
2023-09-22T22:36:55.241Z,16.05
2023-09-22T22:39:24.488Z,15.23
2023-09-22T22:41:54.419Z,15.95
2023-09-22T22:44:23.429Z,15.77
2023-09-22T22:46:52.492Z,15.10
2023-09-22T22:49:21.707Z,15.18
2023-09-22T22:51:52.329Z,15.60
2023-09-22T22:54:21.926Z,15.05
2023-09-22T22:56:54.255Z,15.35
2023-09-22T22:59:23.324Z,15.05
2023-09-22T23:01:52.408Z,15.40
2023-09-22T23:04:21.930Z,15.40
2023-09-22T23:06:53.288Z,15.18
2023-09-22T23:09:23.109Z,15.05
2023-09-22T23:11:54.002Z,15.38
2023-09-22T23:14:26.764Z,14.27
2023-09-22T23:16:56.519Z,15.15
2023-09-22T23:19:25.521Z,15.07
2023-09-22T23:21:56.590Z,15.55
2023-09-22T23:24:26.894Z,14.77
2023-09-22T23:26:55.921Z,14.02
2023-09-22T23:29:26.290Z,15.38
2023-09-22T23:31:55.349Z,14.60
2023-09-22T23:34:24.626Z,14.65
2023-09-22T23:36:57.018Z,15.45
2023-09-22T23:39:27.275Z,15.23
2023-09-22T23:41:56.294Z,15.52
2023-09-22T23:44:27.469Z,15.65
2023-09-22T23:46:56.550Z,15.07
2023-09-22T23:49:25.593Z,15.57
2023-09-22T23:51:56.681Z,15.68
2023-09-22T23:54:27.136Z,15.43
2023-09-22T23:56:56.253Z,15.18
2023-09-22T23:59:26.284Z,15.52
